sensor_id;sensor_type;location;lat;lon;timestamp;temperature;humidity
10536;DHT22;5316;49.538;8.352;2023-08-21T00:00:36;25.00;1.00
10536;DHT22;5316;49.538;8.352;2023-08-21T00:03:12;25.00;1.00
10536;DHT22;5316;49.538;8.352;2023-08-21T00:06:00;24.90;6.00
10536;DHT22;5316;49.538;8.352;2023-08-21T00:08:45;24.90;99.90
10536;DHT22;5316;49.538;8.352;2023-08-21T00:11:14;24.80;99.90
10536;DHT22;5316;49.538;8.352;2023-08-21T00:13:51;24.90;99.90
10536;DHT22;5316;49.538;8.352;2023-08-21T00:16:20;24.80;49.10
10536;DHT22;5316;49.538;8.352;2023-08-21T00:18:48;24.80;29.60
10536;DHT22;5316;49.538;8.352;2023-08-21T00:21:18;24.90;1.00
10536;DHT22;5316;49.538;8.352;2023-08-21T00:23:45;24.90;1.00
10536;DHT22;5316;49.538;8.352;2023-08-21T00:26:12;24.90;1.00
10536;DHT22;5316;49.538;8.352;2023-08-21T00:28:39;24.90;1.00
10536;DHT22;5316;49.538;8.352;2023-08-21T00:31:07;24.80;99.90
10536;DHT22;5316;49.538;8.352;2023-08-21T00:33:34;24.90;99.90
10536;DHT22;5316;49.538;8.352;2023-08-21T00:36:02;24.90;99.90
10536;DHT22;5316;49.538;8.352;2023-08-21T00:38:29;24.90;94.50
10536;DHT22;5316;49.538;8.352;2023-08-21T00:40:56;24.90;19.90
10536;DHT22;5316;49.538;8.352;2023-08-21T00:43:24;25.00;22.70
10536;DHT22;5316;49.538;8.352;2023-08-21T00:45:50;25.00;1.00
10536;DHT22;5316;49.538;8.352;2023-08-21T00:48:19;25.00;1.00
10536;DHT22;5316;49.538;8.352;2023-08-21T00:50:46;25.10;1.00
10536;DHT22;5316;49.538;8.352;2023-08-21T00:53:14;24.90;19.40
10536;DHT22;5316;49.538;8.352;2023-08-21T00:55:41;24.90;21.10
10536;DHT22;5316;49.538;8.352;2023-08-21T00:58:09;24.80;99.90
10536;DHT22;5316;49.538;8.352;2023-08-21T01:00:37;24.80;99.90
10536;DHT22;5316;49.538;8.352;2023-08-21T01:03:04;24.80;99.90
10536;DHT22;5316;49.538;8.352;2023-08-21T01:05:34;24.80;99.90
10536;DHT22;5316;49.538;8.352;2023-08-21T01:08:03;24.70;99.90
10536;DHT22;5316;49.538;8.352;2023-08-21T01:10:45;24.70;1.00
10536;DHT22;5316;49.538;8.352;2023-08-21T01:13:23;24.60;1.00
10536;DHT22;5316;49.538;8.352;2023-08-21T01:15:54;24.50;99.90
10536;DHT22;5316;49.538;8.352;2023-08-21T01:18:22;24.40;1.00
10536;DHT22;5316;49.538;8.352;2023-08-21T01:20:51;24.40;1.00
10536;DHT22;5316;49.538;8.352;2023-08-21T01:23:35;24.40;1.00
10536;DHT22;5316;49.538;8.352;2023-08-21T01:26:03;24.40;1.00
10536;DHT22;5316;49.538;8.352;2023-08-21T01:28:31;24.40;99.90
10536;DHT22;5316;49.538;8.352;2023-08-21T01:31:03;24.30;99.90
10536;DHT22;5316;49.538;8.352;2023-08-21T01:33:35;24.30;99.90
10536;DHT22;5316;49.538;8.352;2023-08-21T01:36:04;24.30;1.00
10536;DHT22;5316;49.538;8.352;2023-08-21T01:38:32;24.30;1.00
10536;DHT22;5316;49.538;8.352;2023-08-21T01:41:02;24.30;1.00
10536;DHT22;5316;49.538;8.352;2023-08-21T01:43:29;24.10;77.50
10536;DHT22;5316;49.538;8.352;2023-08-21T01:45:56;24.00;99.90
10536;DHT22;5316;49.538;8.352;2023-08-21T01:48:23;24.10;99.90
10536;DHT22;5316;49.538;8.352;2023-08-21T01:50:50;24.10;1.00
10536;DHT22;5316;49.538;8.352;2023-08-21T01:53:17;24.00;1.00
10536;DHT22;5316;49.538;8.352;2023-08-21T01:55:44;24.00;1.00
10536;DHT22;5316;49.538;8.352;2023-08-21T01:58:12;24.00;1.00
10536;DHT22;5316;49.538;8.352;2023-08-21T02:00:39;24.10;1.00
10536;DHT22;5316;49.538;8.352;2023-08-21T02:03:06;24.00;1.00
10536;DHT22;5316;49.538;8.352;2023-08-21T02:05:37;24.00;1.00
10536;DHT22;5316;49.538;8.352;2023-08-21T02:08:05;23.90;1.00
10536;DHT22;5316;49.538;8.352;2023-08-21T02:10:32;23.90;1.00
10536;DHT22;5316;49.538;8.352;2023-08-21T02:12:59;23.90;1.00
10536;DHT22;5316;49.538;8.352;2023-08-21T02:15:28;23.80;26.30
10536;DHT22;5316;49.538;8.352;2023-08-21T02:17:55;23.80;99.90
10536;DHT22;5316;49.538;8.352;2023-08-21T02:20:21;23.80;99.90
10536;DHT22;5316;49.538;8.352;2023-08-21T02:22:48;23.70;99.90
10536;DHT22;5316;49.538;8.352;2023-08-21T02:25:15;23.70;99.90
10536;DHT22;5316;49.538;8.352;2023-08-21T02:27:42;23.70;99.90
10536;DHT22;5316;49.538;8.352;2023-08-21T02:30:10;23.60;99.90
10536;DHT22;5316;49.538;8.352;2023-08-21T02:32:38;23.60;99.90
10536;DHT22;5316;49.538;8.352;2023-08-21T02:35:06;23.60;99.90
10536;DHT22;5316;49.538;8.352;2023-08-21T02:37:33;23.60;99.90
10536;DHT22;5316;49.538;8.352;2023-08-21T02:40:05;23.50;99.90
10536;DHT22;5316;49.538;8.352;2023-08-21T02:42:33;23.40;99.90
10536;DHT22;5316;49.538;8.352;2023-08-21T02:45:00;23.40;99.90
10536;DHT22;5316;49.538;8.352;2023-08-21T02:47:29;23.30;99.90
10536;DHT22;5316;49.538;8.352;2023-08-21T02:49:57;23.40;1.00
10536;DHT22;5316;49.538;8.352;2023-08-21T02:52:24;23.30;1.00
10536;DHT22;5316;49.538;8.352;2023-08-21T02:54:52;23.30;1.00
10536;DHT22;5316;49.538;8.352;2023-08-21T02:57:18;23.30;1.00
10536;DHT22;5316;49.538;8.352;2023-08-21T02:59:45;23.30;1.00
10536;DHT22;5316;49.538;8.352;2023-08-21T03:02:12;23.40;1.00
10536;DHT22;5316;49.538;8.352;2023-08-21T03:04:39;23.30;1.00
10536;DHT22;5316;49.538;8.352;2023-08-21T03:07:07;23.30;1.00
10536;DHT22;5316;49.538;8.352;2023-08-21T03:09:35;23.30;1.00
10536;DHT22;5316;49.538;8.352;2023-08-21T03:12:03;23.30;1.00
10536;DHT22;5316;49.538;8.352;2023-08-21T03:14:30;23.30;1.00
10536;DHT22;5316;49.538;8.352;2023-08-21T03:16:57;23.30;1.00
10536;DHT22;5316;49.538;8.352;2023-08-21T03:19:24;23.20;1.00
10536;DHT22;5316;49.538;8.352;2023-08-21T03:21:51;23.20;1.00
10536;DHT22;5316;49.538;8.352;2023-08-21T03:24:19;23.20;1.00
10536;DHT22;5316;49.538;8.352;2023-08-21T03:26:47;23.10;1.00
10536;DHT22;5316;49.538;8.352;2023-08-21T03:29:14;23.10;1.00
10536;DHT22;5316;49.538;8.352;2023-08-21T03:31:41;23.10;1.00
10536;DHT22;5316;49.538;8.352;2023-08-21T03:34:08;23.00;1.00
10536;DHT22;5316;49.538;8.352;2023-08-21T03:36:35;22.90;1.00
10536;DHT22;5316;49.538;8.352;2023-08-21T03:39:04;23.00;1.00
10536;DHT22;5316;49.538;8.352;2023-08-21T03:41:32;23.10;1.00
10536;DHT22;5316;49.538;8.352;2023-08-21T03:43:59;23.10;1.00
10536;DHT22;5316;49.538;8.352;2023-08-21T03:46:26;23.00;1.00
10536;DHT22;5316;49.538;8.352;2023-08-21T03:48:53;23.00;1.00
10536;DHT22;5316;49.538;8.352;2023-08-21T03:51:20;22.90;1.00
10536;DHT22;5316;49.538;8.352;2023-08-21T03:53:47;22.90;1.00
10536;DHT22;5316;49.538;8.352;2023-08-21T03:56:14;22.80;1.00
10536;DHT22;5316;49.538;8.352;2023-08-21T03:58:42;22.80;1.00
10536;DHT22;5316;49.538;8.352;2023-08-21T04:01:09;22.80;1.00
10536;DHT22;5316;49.538;8.352;2023-08-21T04:03:36;22.80;1.00
10536;DHT22;5316;49.538;8.352;2023-08-21T04:06:03;22.80;1.00
10536;DHT22;5316;49.538;8.352;2023-08-21T04:08:30;22.80;1.00
10536;DHT22;5316;49.538;8.352;2023-08-21T04:10:58;22.80;1.00
10536;DHT22;5316;49.538;8.352;2023-08-21T04:13:26;22.80;1.00
10536;DHT22;5316;49.538;8.352;2023-08-21T04:15:54;22.80;1.00
10536;DHT22;5316;49.538;8.352;2023-08-21T04:18:22;22.80;1.00
10536;DHT22;5316;49.538;8.352;2023-08-21T04:20:49;22.80;1.00
10536;DHT22;5316;49.538;8.352;2023-08-21T04:23:16;22.80;1.00
10536;DHT22;5316;49.538;8.352;2023-08-21T04:25:43;22.70;1.00
10536;DHT22;5316;49.538;8.352;2023-08-21T04:28:10;22.60;1.00
10536;DHT22;5316;49.538;8.352;2023-08-21T04:30:40;22.60;1.00
10536;DHT22;5316;49.538;8.352;2023-08-21T04:33:09;22.50;1.00
10536;DHT22;5316;49.538;8.352;2023-08-21T04:35:39;22.50;1.00
10536;DHT22;5316;49.538;8.352;2023-08-21T04:38:06;22.60;1.00
10536;DHT22;5316;49.538;8.352;2023-08-21T04:40:33;22.60;1.00
10536;DHT22;5316;49.538;8.352;2023-08-21T04:43:00;22.60;1.00
10536;DHT22;5316;49.538;8.352;2023-08-21T04:45:27;22.70;1.00
10536;DHT22;5316;49.538;8.352;2023-08-21T04:47:54;22.70;1.00
10536;DHT22;5316;49.538;8.352;2023-08-21T04:50:22;22.70;1.00
10536;DHT22;5316;49.538;8.352;2023-08-21T04:52:49;22.60;1.00
10536;DHT22;5316;49.538;8.352;2023-08-21T04:55:16;22.60;1.00
10536;DHT22;5316;49.538;8.352;2023-08-21T05:14:24;22.60;1.00
10536;DHT22;5316;49.538;8.352;2023-08-21T05:38:01;22.80;1.00
10536;DHT22;5316;49.538;8.352;2023-08-21T05:40:28;23.00;1.00
10536;DHT22;5316;49.538;8.352;2023-08-21T05:46:39;23.00;1.00
10536;DHT22;5316;49.538;8.352;2023-08-21T05:49:20;23.10;1.00
10536;DHT22;5316;49.538;8.352;2023-08-21T05:52:41;23.10;1.00
10536;DHT22;5316;49.538;8.352;2023-08-21T05:55:38;23.10;1.00
10536;DHT22;5316;49.538;8.352;2023-08-21T05:58:16;23.20;1.00
10536;DHT22;5316;49.538;8.352;2023-08-21T06:01:01;23.30;1.00
10536;DHT22;5316;49.538;8.352;2023-08-21T06:03:58;23.30;1.00
